Time;durP1;ratioP1;P1;durP2;ratioP2;P2;SDS_P1;SDS_P2;PMS_P1;PMS_P2;Temp;Humidity;BMP_temperature;BMP_pressure;BME280_temperature;BME280_humidity;BME280_pressure;Samples;Min_cycle;Max_cycle;Signal;HPM_P1;HPM_P2
2023/01/27 00:00:06;;;;;;;19.75;10.02;;;3.80;99.90;;;;;;5096984;28;20408;-85
2023/01/27 00:02:32;;;;;;;16.58;9.50;;;3.80;99.90;;;;;;5094323;28;20179;-85
2023/01/27 00:04:57;;;;;;;17.00;9.82;;;3.80;99.90;;;;;;5098002;28;20131;-84
2023/01/27 00:07:23;;;;;;;16.50;9.55;;;3.80;99.90;;;;;;5102190;28;20040;-85
2023/01/27 00:09:49;;;;;;;16.83;9.63;;;4.00;99.90;;;;;;5098653;28;20049;-85
2023/01/27 00:15:06;;;;;;;22.25;10.27;;;3.80;99.90;;;;;;5101209;28;20039;-84
2023/01/27 00:17:32;;;;;;;17.85;9.45;;;3.80;99.90;;;;;;5097273;28;20416;-85
2023/01/27 00:19:58;;;;;;;17.30;9.65;;;3.80;99.90;;;;;;5083323;28;20485;-85
2023/01/27 00:25:08;;;;;;;15.02;9.32;;;3.90;99.90;;;;;;5093717;28;20035;-86
2023/01/27 00:27:34;;;;;;;13.82;9.18;;;3.80;99.90;;;;;;5100672;28;20024;-86
2023/01/27 00:29:59;;;;;;;13.18;9.30;;;3.80;99.90;;;;;;5100340;28;20127;-86
2023/01/27 00:35:09;;;;;;;14.07;8.20;;;3.80;99.90;;;;;;5099811;28;20081;-85
2023/01/27 00:37:35;;;;;;;12.52;7.35;;;3.80;99.90;;;;;;5106772;28;20046;-85
2023/01/27 00:40:00;;;;;;;11.23;7.10;;;3.80;99.90;;;;;;5098122;28;20440;-85
2023/01/27 00:42:26;;;;;;;12.02;7.60;;;3.80;99.90;;;;;;5101049;28;20035;-87
2023/01/27 00:47:36;;;;;;;;;;;3.80;99.90;;;;;;5114018;27;20046;-85
2023/01/27 00:50:01;;;;;;;10.15;5.30;;;3.70;99.90;;;;;;5098917;28;19915;-86
2023/01/27 00:52:27;;;;;;;9.38;5.47;;;3.70;99.90;;;;;;5085213;27;20095;-85
2023/01/27 00:54:52;;;;;;;9.63;5.60;;;3.70;99.90;;;;;;5109803;27;20065;-85
2023/01/27 00:57:18;;;;;;;10.07;5.50;;;3.70;99.90;;;;;;5098183;27;20036;-85
2023/01/27 00:59:43;;;;;;;7.97;5.30;;;3.70;99.90;;;;;;5101018;27;20118;-85
2023/01/27 01:02:09;;;;;;;7.55;5.25;;;3.70;99.90;;;;;;5091596;27;20381;-86
2023/01/27 01:04:34;;;;;;;9.85;5.55;;;3.70;99.90;;;;;;5104003;28;20515;-85
2023/01/27 01:07:00;;;;;;;10.82;4.60;;;3.70;99.90;;;;;;5085810;28;20027;-85
2023/01/27 01:09:25;;;;;;;8.13;4.68;;;3.70;99.90;;;;;;5105879;27;20043;-85
2023/01/27 01:11:51;;;;;;;9.80;4.60;;;3.70;99.90;;;;;;5095001;28;20472;-86
2023/01/27 01:14:16;;;;;;;6.32;4.43;;;3.70;99.90;;;;;;5104110;27;20047;-86
2023/01/27 01:16:42;;;;;;;7.63;4.53;;;3.70;99.90;;;;;;5104204;28;20357;-86
2023/01/27 01:19:07;;;;;;;6.47;3.85;;;3.70;99.90;;;;;;5104630;27;20078;-85
2023/01/27 01:21:33;;;;;;;5.53;4.22;;;3.70;99.90;;;;;;5097884;27;20027;-85
2023/01/27 01:23:58;;;;;;;6.65;3.97;;;3.70;99.90;;;;;;5084524;28;20039;-85
2023/01/27 01:26:24;;;;;;;7.32;3.92;;;3.70;99.90;;;;;;5096206;27;20039;-85
2023/01/27 01:28:49;;;;;;;7.82;4.03;;;3.70;99.90;;;;;;5097748;28;20114;-85
2023/01/27 01:31:18;;;;;;;8.18;4.60;;;3.80;99.90;;;;;;5083754;28;20128;-85
2023/01/27 01:33:44;;;;;;;8.10;4.15;;;3.70;99.90;;;;;;5104305;27;20156;-86
2023/01/27 01:36:15;;;;;;;6.32;4.18;;;3.70;99.90;;;;;;5090201;27;20416;-85
2023/01/27 01:38:41;;;;;;;7.13;4.53;;;3.70;99.90;;;;;;5103390;28;20039;-85
2023/01/27 01:41:11;;;;;;;7.85;4.43;;;3.80;99.90;;;;;;5094953;27;20052;-86
2023/01/27 01:43:37;;;;;;;8.32;4.20;;;3.70;99.90;;;;;;5087873;28;20024;-85
2023/01/27 01:46:03;;;;;;;7.60;4.10;;;3.80;99.90;;;;;;5089817;27;20043;-85
2023/01/27 01:48:57;;;;;;;6.55;4.13;;;3.80;99.90;;;;;;5068859;28;20107;-86
2023/01/27 01:51:34;;;;;;;5.47;3.38;;;3.70;99.90;;;;;;5098166;27;20044;-85
2023/01/27 01:54:06;;;;;;;6.78;3.63;;;3.80;99.90;;;;;;5093212;27;20420;-85
2023/01/27 01:56:35;;;;;;;5.60;3.25;;;3.70;99.90;;;;;;5090439;28;20115;-85
2023/01/27 01:59:06;;;;;;;6.15;3.00;;;3.70;99.90;;;;;;5089781;28;20039;-85
2023/01/27 02:01:32;;;;;;;5.57;2.78;;;3.70;99.90;;;;;;5092777;27;20031;-85
2023/01/27 02:04:04;;;;;;;4.15;2.35;;;3.70;99.90;;;;;;5104855;27;20488;-85
2023/01/27 02:06:36;;;;;;;3.67;2.60;;;3.80;99.90;;;;;;5100475;27;20395;-86
2023/01/27 02:09:01;;;;;;;3.80;2.20;;;3.80;99.90;;;;;;5098243;28;20052;-85
2023/01/27 02:11:27;;;;;;;3.58;2.17;;;3.80;99.90;;;;;;5105267;27;20043;-85
2023/01/27 02:13:53;;;;;;;5.78;2.08;;;3.80;99.90;;;;;;5082327;27;20079;-85
2023/01/27 02:16:19;;;;;;;5.22;2.17;;;3.80;99.90;;;;;;5103165;27;20067;-85
2023/01/27 02:18:44;;;;;;;6.78;2.58;;;3.80;99.90;;;;;;5100565;28;20598;-85
2023/01/27 02:21:10;;;;;;;4.10;2.13;;;3.90;99.90;;;;;;5089297;27;20503;-86
2023/01/27 02:23:54;;;;;;;4.50;2.20;;;3.80;99.90;;;;;;5085492;28;20538;-85
2023/01/27 02:26:21;;;;;;;;;;;3.80;99.90;;;;;;5098927;28;20512;-85
2023/01/27 02:28:56;;;;;;;5.25;2.10;;;3.80;99.90;;;;;;5082124;28;19922;-85
2023/01/27 02:31:22;;;;;;;6.05;2.13;;;3.80;99.90;;;;;;5121398;27;20503;-85
2023/01/27 02:33:48;;;;;;;3.50;1.95;;;3.80;99.90;;;;;;5089218;27;20103;-86
2023/01/27 02:36:16;;;;;;;2.97;1.70;;;3.80;99.90;;;;;;5096362;28;20083;-85
2023/01/27 02:38:50;;;;;;;3.13;1.67;;;3.80;99.90;;;;;;5101889;28;20032;-85
2023/01/27 02:41:29;;;;;;;3.15;1.52;;;3.80;99.90;;;;;;5085378;27;20453;-84
2023/01/27 02:43:55;;;;;;;3.17;1.35;;;3.80;99.90;;;;;;5104882;27;20063;-85
2023/01/27 02:46:20;;;;;;;3.30;1.50;;;3.80;99.90;;;;;;5097358;27;20071;-85
2023/01/27 02:48:46;;;;;;;3.10;1.40;;;3.80;99.90;;;;;;5092821;28;20046;-85
2023/01/27 02:51:12;;;;;;;3.25;1.40;;;3.90;99.90;;;;;;5074189;27;20122;-85
2023/01/27 02:53:37;;;;;;;3.67;1.42;;;3.80;99.90;;;;;;5100902;28;20521;-85
2023/01/27 02:56:04;;;;;;;3.13;1.50;;;3.80;99.90;;;;;;5088906;27;20065;-85
2023/01/27 02:58:29;;;;;;;4.95;1.52;;;3.80;99.90;;;;;;5091580;27;20042;-85
2023/01/27 03:00:55;;;;;;;4.43;1.60;;;3.80;99.90;;;;;;5102686;27;20032;-85
2023/01/27 03:03:20;;;;;;;3.92;1.20;;;3.80;99.90;;;;;;5101656;27;20032;-86
2023/01/27 03:05:46;;;;;;;5.47;1.83;;;3.70;99.90;;;;;;5106518;28;20488;-86
2023/01/27 03:08:12;;;;;;;2.67;1.35;;;3.80;99.90;;;;;;5102994;27;20028;-86
2023/01/27 03:10:38;;;;;;;4.00;1.65;;;3.80;99.90;;;;;;5087511;27;20031;-86
2023/01/27 03:13:03;;;;;;;3.28;1.50;;;3.70;99.90;;;;;;5097485;28;20039;-86
2023/01/27 03:18:16;;;;;;;1.92;1.27;;;3.70;99.90;;;;;;5099515;27;20071;-85
2023/01/27 03:20:47;;;;;;;2.95;1.48;;;3.70;99.90;;;;;;5102095;27;20046;-85
2023/01/27 03:23:14;;;;;;;4.18;1.50;;;3.70;99.90;;;;;;5094751;27;20046;-85
2023/01/27 03:25:42;;;;;;;3.25;1.40;;;3.70;99.90;;;;;;5103494;27;20219;-85
2023/01/27 03:28:09;;;;;;;5.40;1.38;;;3.70;99.90;;;;;;5101772;28;20043;-85
2023/01/27 03:30:34;;;;;;;2.67;1.40;;;3.70;99.90;;;;;;5096526;27;20163;-85
2023/01/27 03:33:02;;;;;;;2.63;1.30;;;3.70;99.90;;;;;;5076867;28;20199;-85
2023/01/27 03:35:33;;;;;;;3.97;1.20;;;3.60;99.90;;;;;;5102930;27;20164;-84
2023/01/27 03:46:18;;;;;;;2.63;1.27;;;3.60;99.90;;;;;;5094858;27;19984;-85
2023/01/27 03:48:49;;;;;;;4.18;1.25;;;3.60;99.90;;;;;;5099679;28;20031;-85
2023/01/27 03:51:15;;;;;;;3.33;0.93;;;3.60;99.90;;;;;;5102705;27;20042;-84
2023/01/27 03:53:41;;;;;;;2.22;1.05;;;3.60;99.90;;;;;;5098297;27;20714;-84
2023/01/27 03:56:07;;;;;;;3.42;1.45;;;3.50;99.90;;;;;;5101194;27;20031;-85
2023/01/27 03:58:34;;;;;;;2.22;1.10;;;3.60;99.90;;;;;;5099716;27;20035;-85
2023/01/27 04:01:15;;;;;;;3.20;1.15;;;3.60;99.90;;;;;;5097340;28;20477;-85
2023/01/27 04:09:18;;;;;;;3.75;1.35;;;3.50;99.90;;;;;;5101748;28;20043;-85
2023/01/27 04:11:59;;;;;;;2.58;1.10;;;3.50;99.90;;;;;;5098262;28;20523;-85
2023/01/27 04:14:32;;;;;;;2.08;1.20;;;3.50;99.90;;;;;;5080522;28;20062;-85
2023/01/27 04:17:01;;;;;;;4.13;1.10;;;3.40;99.90;;;;;;5080158;28;20453;-85
2023/01/27 04:19:27;;;;;;;5.53;1.20;;;3.50;99.90;;;;;;5103878;28;20496;-85
2023/01/27 04:21:53;;;;;;;2.17;1.05;;;3.40;99.90;;;;;;5100487;28;20051;-85
2023/01/27 04:24:22;;;;;;;7.00;1.23;;;3.40;99.90;;;;;;5096541;28;20061;-86
2023/01/27 04:26:57;;;;;;;2.17;0.98;;;3.40;99.90;;;;;;5094019;28;20452;-85
2023/01/27 04:29:26;;;;;;;4.43;1.15;;;3.40;99.90;;;;;;5095736;28;20047;-86
2023/01/27 04:31:52;;;;;;;4.45;1.17;;;3.40;99.90;;;;;;5094903;28;20036;-85
2023/01/27 04:34:18;;;;;;;3.90;1.20;;;3.40;99.90;;;;;;5079071;28;20497;-85
2023/01/27 04:36:44;;;;;;;3.08;1.25;;;3.40;99.90;;;;;;5099176;28;20038;-85
2023/01/27 04:39:10;;;;;;;3.47;0.88;;;3.40;99.90;;;;;;5103428;28;20035;-85
2023/01/27 04:41:36;;;;;;;6.47;1.30;;;3.40;99.90;;;;;;5091280;28;20027;-85
2023/01/27 04:44:03;;;;;;;5.53;1.42;;;3.40;99.90;;;;;;5079348;28;20035;-85
2023/01/27 04:46:29;;;;;;;4.50;1.73;;;3.40;99.90;;;;;;5078995;28;20031;-86
2023/01/27 04:48:55;;;;;;;4.07;1.35;;;3.40;99.90;;;;;;5075482;28;20488;-85
2023/01/27 04:51:20;;;;;;;3.90;1.70;;;3.40;99.90;;;;;;5093066;28;20039;-85
2023/01/27 04:53:46;;;;;;;2.88;1.40;;;3.30;99.90;;;;;;5096128;28;20103;-85
2023/01/27 04:56:23;;;;;;;3.20;1.60;;;3.40;99.90;;;;;;5103062;28;20059;-85
2023/01/27 04:58:49;;;;;;;4.30;1.55;;;3.30;99.90;;;;;;5091112;28;20052;-86
2023/01/27 05:01:15;;;;;;;3.65;1.60;;;3.30;99.90;;;;;;5095287;28;20043;-85
2023/01/27 05:03:41;;;;;;;3.60;1.63;;;3.30;99.90;;;;;;5098146;28;20035;-85
2023/01/27 05:06:09;;;;;;;3.55;1.83;;;3.30;99.90;;;;;;5098942;28;20038;-85
2023/01/27 05:08:34;;;;;;;4.70;2.10;;;3.30;99.90;;;;;;5081088;28;20042;-85
2023/01/27 05:11:00;;;;;;;4.07;1.83;;;3.30;99.90;;;;;;5093778;28;20114;-85
2023/01/27 05:13:25;;;;;;;4.47;1.70;;;3.30;99.90;;;;;;5080277;28;20032;-85
2023/01/27 05:15:51;;;;;;;4.97;1.98;;;3.30;99.90;;;;;;5078220;28;20557;-86
2023/01/27 05:18:16;;;;;;;5.50;2.00;;;3.30;99.90;;;;;;5089585;28;20032;-85
2023/01/27 05:20:42;;;;;;;3.40;2.20;;;3.30;99.90;;;;;;5083669;28;20042;-85
2023/01/27 05:25:51;;;;;;;6.05;2.45;;;3.30;99.90;;;;;;5086730;28;20036;-85
2023/01/27 05:28:17;;;;;;;7.30;2.40;;;3.40;99.90;;;;;;5075503;28;20035;-85
2023/01/27 05:30:42;;;;;;;6.75;2.40;;;3.30;99.90;;;;;;5070546;28;20485;-84
2023/01/27 05:33:09;;;;;;;5.35;2.17;;;3.40;99.90;;;;;;5082531;28;20039;-84
2023/01/27 05:35:35;;;;;;;4.72;2.00;;;3.30;99.90;;;;;;5103305;27;20046;-84
2023/01/27 05:38:01;;;;;;;5.68;2.17;;;3.30;99.90;;;;;;5107048;27;20484;-86
2023/01/27 05:40:26;;;;;;;4.95;2.15;;;3.30;99.90;;;;;;5093758;28;20093;-86
2023/01/27 05:42:52;;;;;;;5.68;2.30;;;3.30;99.90;;;;;;5083375;28;20055;-85
2023/01/27 05:45:18;;;;;;;5.82;2.08;;;3.30;99.90;;;;;;5098312;27;20028;-86
2023/01/27 05:47:50;;;;;;;4.00;2.20;;;3.30;99.90;;;;;;5102506;28;20485;-85
2023/01/27 05:50:16;;;;;;;6.38;1.80;;;3.30;99.90;;;;;;5107514;27;20136;-85
2023/01/27 05:52:42;;;;;;;4.60;1.73;;;3.30;99.90;;;;;;5085249;28;20039;-85
2023/01/27 05:55:08;;;;;;;5.13;1.80;;;3.20;99.90;;;;;;5096630;27;20040;-85
2023/01/27 05:57:33;;;;;;;3.28;2.08;;;3.20;99.90;;;;;;5085865;28;20039;-86
2023/01/27 05:59:59;;;;;;;2.75;1.70;;;3.20;99.90;;;;;;5082853;27;20035;-85
2023/01/27 06:02:24;;;;;;;6.70;2.70;;;3.20;99.90;;;;;;5099315;27;20035;-85
2023/01/27 06:04:50;;;;;;;2.67;1.50;;;3.30;99.90;;;;;;5077860;28;20048;-85
2023/01/27 06:07:15;;;;;;;4.07;1.48;;;3.20;99.90;;;;;;5088126;27;20486;-86
2023/01/27 06:09:41;;;;;;;5.38;1.35;;;3.20;99.90;;;;;;5102909;27;20046;-86
2023/01/27 06:12:06;;;;;;;3.55;1.55;;;3.20;99.90;;;;;;5079115;27;20056;-85
2023/01/27 06:14:32;;;;;;;4.88;1.58;;;3.20;99.90;;;;;;5094052;28;20032;-85
2023/01/27 06:16:59;;;;;;;4.78;1.50;;;3.20;99.90;;;;;;5081141;28;20036;-85
2023/01/27 06:19:25;;;;;;;3.33;1.48;;;3.20;99.90;;;;;;5105923;27;20039;-85
2023/01/27 06:21:50;;;;;;;3.60;1.40;;;3.20;99.90;;;;;;5093123;28;20051;-85
2023/01/27 06:24:16;;;;;;;3.90;1.30;;;3.20;99.90;;;;;;5078574;28;20040;-85
2023/01/27 06:26:41;;;;;;;4.22;1.40;;;3.10;99.90;;;;;;5102949;27;20118;-85
2023/01/27 06:29:07;;;;;;;2.55;1.40;;;3.10;99.90;;;;;;5098517;28;20036;-85
2023/01/27 06:31:32;;;;;;;2.08;0.95;;;3.10;99.90;;;;;;5079057;28;20048;-85
2023/01/27 06:33:58;;;;;;;2.38;1.10;;;3.10;99.90;;;;;;5095589;28;20039;-85
2023/01/27 06:36:24;;;;;;;2.97;1.23;;;3.10;99.90;;;;;;5094412;28;20075;-85
2023/01/27 06:38:50;;;;;;;6.30;1.50;;;3.10;99.90;;;;;;5106670;27;20058;-85
2023/01/27 06:41:16;;;;;;;2.65;1.00;;;3.10;99.90;;;;;;5086487;27;20404;-85
2023/01/27 06:43:42;;;;;;;3.08;1.27;;;3.10;99.90;;;;;;5095969;27;20040;-85
2023/01/27 06:46:11;;;;;;;2.10;1.02;;;3.10;99.90;;;;;;5081963;28;20040;-85
2023/01/27 06:48:36;;;;;;;3.92;1.50;;;3.10;99.90;;;;;;5093831;28;20035;-85
2023/01/27 06:51:02;;;;;;;1.40;0.90;;;3.10;99.90;;;;;;5103607;28;20086;-86
2023/01/27 06:53:28;;;;;;;3.00;1.10;;;2.20;99.90;;;;;;5100008;27;20384;-85
2023/01/27 06:55:55;;;;;;;1.90;1.00;;;3.00;99.90;;;;;;5089732;27;20084;-85
2023/01/27 06:58:21;;;;;;;2.55;0.88;;;3.10;99.90;;;;;;5102408;27;20552;-86
2023/01/27 07:00:46;;;;;;;3.05;1.10;;;3.10;99.90;;;;;;5084975;28;20119;-85
2023/01/27 07:03:12;;;;;;;2.10;1.08;;;3.10;99.90;;;;;;5104951;27;20514;-86
2023/01/27 07:05:39;;;;;;;2.60;1.17;;;3.10;99.90;;;;;;5098547;27;20030;-86
2023/01/27 07:08:05;;;;;;;2.75;1.23;;;3.10;99.90;;;;;;5104095;27;20031;-85
2023/01/27 07:10:31;;;;;;;2.55;1.17;;;3.10;99.90;;;;;;5101116;27;20038;-85
2023/01/27 07:13:04;;;;;;;3.35;1.00;;;3.10;99.90;;;;;;5076582;28;20039;-85
2023/01/27 07:15:31;;;;;;;1.48;1.02;;;3.10;99.90;;;;;;5090443;27;20118;-85
2023/01/27 07:18:01;;;;;;;2.67;1.00;;;3.10;99.90;;;;;;5084189;28;20047;-86
2023/01/27 07:20:27;;;;;;;2.03;1.05;;;3.10;99.90;;;;;;5101187;28;20039;-86
2023/01/27 07:22:59;;;;;;;4.03;1.10;;;3.20;99.90;;;;;;5098292;28;20047;-86
2023/01/27 07:25:26;;;;;;;3.20;1.05;;;3.10;99.90;;;;;;5087525;27;20160;-86
2023/01/27 07:27:52;;;;;;;4.07;1.00;;;3.10;99.90;;;;;;5101752;28;20055;-85
2023/01/27 07:30:18;;;;;;;4.55;1.10;;;3.10;99.90;;;;;;5082276;27;20031;-86
2023/01/27 07:32:43;;;;;;;2.80;1.13;;;3.10;99.90;;;;;;5089992;28;20046;-86
2023/01/27 07:35:09;;;;;;;3.83;1.20;;;3.10;99.90;;;;;;5095434;28;20043;-85
2023/01/27 07:37:34;;;;;;;3.33;1.10;;;3.10;99.90;;;;;;5103277;27;20039;-85
2023/01/27 07:40:00;;;;;;;2.88;1.20;;;3.10;99.90;;;;;;5096442;28;20054;-85
2023/01/27 07:42:25;;;;;;;4.50;1.20;;;3.10;99.90;;;;;;5102279;27;20390;-85
2023/01/27 07:44:51;;;;;;;3.38;1.40;;;3.10;99.90;;;;;;5068155;28;20119;-85
2023/01/27 07:47:16;;;;;;;2.67;1.35;;;3.20;99.90;;;;;;5072949;27;20031;-85
2023/01/27 07:49:42;;;;;;;3.60;1.30;;;3.20;99.90;;;;;;5105382;27;20038;-85
2023/01/27 07:52:08;;;;;;;3.97;1.30;;;3.10;99.90;;;;;;5086316;27;20512;-85
2023/01/27 07:54:33;;;;;;;3.47;1.20;;;3.20;99.90;;;;;;5085405;27;20118;-84
2023/01/27 07:57:00;;;;;;;4.88;1.20;;;3.20;99.90;;;;;;5096893;28;20086;-85
2023/01/27 07:59:26;;;;;;;4.00;1.52;;;3.20;99.90;;;;;;5091032;28;20035;-85
2023/01/27 08:01:51;;;;;;;3.95;1.63;;;3.20;99.90;;;;;;5083295;27;20446;-85
2023/01/27 08:04:17;;;;;;;4.28;1.92;;;3.30;99.90;;;;;;5093623;27;20043;-85
2023/01/27 08:06:43;;;;;;;4.97;1.90;;;3.20;99.90;;;;;;5105649;27;20031;-86
2023/01/27 08:09:08;;;;;;;5.20;1.70;;;3.30;99.90;;;;;;5089302;27;20104;-86
2023/01/27 08:11:34;;;;;;;8.02;2.10;;;3.30;99.90;;;;;;5099655;27;20031;-85
2023/01/27 08:14:00;;;;;;;6.07;2.25;;;3.30;99.90;;;;;;5080946;28;20042;-85
2023/01/27 08:16:25;;;;;;;5.55;1.80;;;3.30;99.90;;;;;;5087977;28;20035;-85
2023/01/27 08:18:52;;;;;;;5.20;1.70;;;3.30;99.90;;;;;;5097241;28;20035;-85
2023/01/27 08:21:18;;;;;;;4.82;1.80;;;3.40;99.90;;;;;;5095030;28;20034;-85
2023/01/27 08:23:44;;;;;;;4.80;1.90;;;3.40;99.90;;;;;;5085910;28;20522;-85
2023/01/27 08:26:09;;;;;;;5.53;1.65;;;3.40;99.90;;;;;;5093880;28;20036;-86
2023/01/27 08:28:36;;;;;;;4.90;1.88;;;3.40;99.90;;;;;;5085851;28;20028;-85
2023/01/27 08:31:15;;;;;;;3.33;1.38;;;3.40;99.90;;;;;;5077430;28;20431;-86
2023/01/27 08:33:43;;;;;;;5.72;1.70;;;3.40;99.90;;;;;;5098191;28;20040;-85
2023/01/27 08:36:12;;;;;;;4.55;2.10;;;3.40;99.90;;;;;;5059665;28;20035;-85
2023/01/27 08:38:38;;;;;;;10.18;1.70;;;3.40;99.90;;;;;;5079144;28;20031;-85
2023/01/27 08:41:06;;;;;;;6.15;1.70;;;3.40;99.90;;;;;;5062319;28;20036;-86
2023/01/27 08:43:32;;;;;;;6.72;2.10;;;3.40;99.90;;;;;;5074765;28;20054;-85
2023/01/27 08:45:59;;;;;;;6.07;1.77;;;3.50;99.90;;;;;;5054462;28;20441;-85
2023/01/27 08:48:26;;;;;;;5.32;1.70;;;3.50;99.90;;;;;;5078422;28;20125;-85
2023/01/27 08:50:52;;;;;;;6.65;2.22;;;3.70;99.90;;;;;;5076730;28;20036;-85
2023/01/27 08:53:17;;;;;;;6.28;2.20;;;3.60;99.90;;;;;;5077591;28;20038;-85
2023/01/27 08:55:43;;;;;;;7.90;2.20;;;3.70;99.90;;;;;;5076256;28;20039;-86
2023/01/27 08:58:08;;;;;;;3.90;1.90;;;3.80;99.90;;;;;;5084989;28;20415;-86
2023/01/27 09:00:34;;;;;;;6.40;2.25;;;3.80;99.90;;;;;;5075199;28;20043;-85
2023/01/27 09:02:59;;;;;;;5.53;2.40;;;3.80;99.90;;;;;;5077935;28;20031;-86
2023/01/27 09:05:25;;;;;;;5.22;2.50;;;4.00;99.90;;;;;;5062787;28;20035;-85
2023/01/27 09:07:50;;;;;;;8.60;2.90;;;3.90;99.90;;;;;;5076825;28;20027;-87
2023/01/27 09:10:16;;;;;;;4.20;2.42;;;3.90;99.90;;;;;;5074076;28;20558;-86
2023/01/27 09:12:43;;;;;;;5.95;2.22;;;3.90;99.90;;;;;;5074998;28;20050;-86
2023/01/27 09:15:09;;;;;;;6.85;2.53;;;3.90;99.90;;;;;;5080796;27;20044;-86
2023/01/27 09:17:36;;;;;;;5.50;2.28;;;3.90;99.90;;;;;;5065260;28;20043;-85
2023/01/27 09:20:02;;;;;;;6.70;2.78;;;3.90;99.90;;;;;;5082497;27;20035;-86
2023/01/27 09:22:27;;;;;;;7.25;2.33;;;3.90;99.90;;;;;;5090725;28;20035;-85
2023/01/27 09:24:53;;;;;;;5.35;2.33;;;4.00;99.90;;;;;;5086610;28;20038;-87
2023/01/27 09:27:18;;;;;;;3.75;2.00;;;4.00;99.90;;;;;;5081989;28;20142;-86
2023/01/27 09:29:44;;;;;;;4.32;2.40;;;3.90;99.90;;;;;;5084740;28;20122;-85
2023/01/27 09:32:11;;;;;;;2.17;1.45;;;3.90;99.90;;;;;;5079287;27;20097;-86
2023/01/27 09:34:40;;;;;;;3.97;1.60;;;3.80;99.90;;;;;;5096877;28;20378;-86
2023/01/27 09:37:09;;;;;;;2.50;1.60;;;3.80;99.90;;;;;;5071716;28;20439;-85
2023/01/27 09:39:40;;;;;;;4.53;1.60;;;3.80;99.90;;;;;;5089790;28;20497;-86
2023/01/27 09:42:30;;;;;;;3.40;1.70;;;3.80;99.90;;;;;;5069769;28;20092;-85
2023/01/27 09:45:23;;;;;;;4.18;1.60;;;3.80;99.90;;;;;;5092136;28;20032;-85
2023/01/27 09:48:16;;;;;;;3.15;1.70;;;3.70;99.90;;;;;;5070254;28;20040;-86
2023/01/27 09:51:04;;;;;;;3.72;1.58;;;3.70;99.90;;;;;;5096499;27;20110;-85
2023/01/27 09:54:01;;;;;;;2.10;1.55;;;3.60;99.90;;;;;;5095826;28;20451;-85
2023/01/27 09:56:51;;;;;;;3.55;1.90;;;3.60;99.90;;;;;;5083132;28;20044;-85
2023/01/27 09:59:25;;;;;;;4.40;1.88;;;3.60;99.90;;;;;;5062887;28;20035;-86
2023/01/27 10:02:10;;;;;;;2.40;1.60;;;3.80;99.90;;;;;;5059122;28;20680;-86
2023/01/27 10:05:01;;;;;;;3.33;1.40;;;3.80;99.90;;;;;;5076784;28;20035;-85
2023/01/27 10:07:49;;;;;;;3.08;1.73;;;3.90;99.90;;;;;;5069421;28;20028;-86
2023/01/27 10:10:23;;;;;;;2.20;1.45;;;4.00;99.90;;;;;;5078634;27;20417;-85
2023/01/27 10:13:03;;;;;;;2.85;1.60;;;4.10;99.90;;;;;;5073331;28;20067;-85
2023/01/27 10:15:50;;;;;;;3.72;1.50;;;4.10;99.90;;;;;;5086102;28;20555;-85
2023/01/27 10:18:34;;;;;;;2.85;1.45;;;4.20;99.90;;;;;;5086134;27;20050;-86
2023/01/27 10:21:08;;;;;;;;;;;4.10;99.90;;;;;;5083250;28;20081;-85
2023/01/27 10:23:45;;;;;;;2.65;1.40;;;4.10;99.90;;;;;;5083610;27;19959;-85
2023/01/27 10:26:43;;;;;;;1.50;1.10;;;4.20;99.90;;;;;;5078944;28;20503;-86
2023/01/27 10:29:37;;;;;;;3.13;1.20;;;4.20;99.90;;;;;;5058587;28;20055;-86
2023/01/27 10:32:25;;;;;;;2.25;1.30;;;4.20;99.90;;;;;;5084377;28;20032;-85
2023/01/27 10:35:23;;;;;;;3.88;1.42;;;4.20;99.90;;;;;;5088570;28;20071;-86
2023/01/27 10:38:11;;;;;;;2.22;1.40;;;4.20;99.90;;;;;;5084164;28;20051;-85
2023/01/27 10:40:49;;;;;;;1.83;1.10;;;4.30;99.90;;;;;;5098756;27;20031;-85
2023/01/27 10:43:47;;;;;;;1.85;1.20;;;4.40;99.90;;;;;;5107074;27;20091;-86
2023/01/27 10:46:34;;;;;;;1.40;1.00;;;4.40;99.90;;;;;;5079508;27;20043;-85
2023/01/27 10:49:09;;;;;;;2.10;1.10;;;4.50;99.90;;;;;;5067148;28;20036;-85
2023/01/27 10:51:48;;;;;;;2.35;1.20;;;4.50;99.90;;;;;;5080176;27;20035;-86
2023/01/27 10:54:29;;;;;;;1.83;1.20;;;4.50;99.90;;;;;;5100333;28;20097;-85
2023/01/27 10:57:01;;;;;;;2.55;1.60;;;4.50;99.90;;;;;;5101308;28;20035;-85
2023/01/27 10:59:42;;;;;;;2.38;1.30;;;4.50;99.90;;;;;;5093849;28;20035;-85
2023/01/27 11:02:23;;;;;;;1.83;1.38;;;4.50;99.90;;;;;;5090265;27;20031;-84
2023/01/27 11:04:57;;;;;;;2.22;1.30;;;4.50;99.90;;;;;;5074027;28;20027;-86
2023/01/27 11:07:23;;;;;;;2.38;1.60;;;4.40;99.90;;;;;;5092042;27;20032;-86
2023/01/27 11:09:56;;;;;;;3.53;2.00;;;4.40;99.90;;;;;;5106890;27;20039;-86
2023/01/27 11:12:33;;;;;;;3.58;1.90;;;4.30;99.90;;;;;;5087949;27;20039;-85
2023/01/27 11:15:00;;;;;;;3.13;2.00;;;4.30;99.90;;;;;;5098789;27;20084;-85
2023/01/27 11:17:47;;;;;;;4.10;2.08;;;4.20;99.90;;;;;;5096232;27;20039;-85
2023/01/27 11:20:34;;;;;;;3.30;2.58;;;4.20;99.90;;;;;;5088962;28;20123;-85
2023/01/27 11:23:08;;;;;;;4.50;2.95;;;4.10;99.90;;;;;;5090021;28;20035;-85
2023/01/27 11:25:40;;;;;;;4.07;3.20;;;4.10;99.90;;;;;;5101923;27;20054;-84
2023/01/27 11:28:31;;;;;;;4.32;3.00;;;4.00;99.90;;;;;;5111493;28;20038;-85
2023/01/27 11:31:34;;;;;;;5.95;3.80;;;4.00;99.90;;;;;;5094466;28;20039;-84
2023/01/27 11:34:17;;;;;;;5.40;3.58;;;4.00;99.90;;;;;;5093827;28;20085;-85
2023/01/27 11:36:43;;;;;;;5.38;3.65;;;4.00;99.90;;;;;;5093899;28;20043;-85
2023/01/27 11:39:10;;;;;;;8.60;4.13;;;3.90;99.90;;;;;;5092143;28;20489;-86
2023/01/27 11:41:40;;;;;;;4.65;3.80;;;3.90;99.90;;;;;;5088729;28;20040;-86
2023/01/27 11:44:21;;;;;;;6.47;4.43;;;3.80;99.90;;;;;;5099424;28;20028;-86
2023/01/27 11:46:48;;;;;;;5.38;4.00;;;3.80;99.90;;;;;;5104702;27;20135;-85
2023/01/27 11:49:33;;;;;;;5.22;3.75;;;3.80;99.90;;;;;;5092646;28;20044;-86
2023/01/27 11:52:04;;;;;;;6.20;4.55;;;3.80;99.90;;;;;;5076761;28;20100;-85
2023/01/27 11:54:53;;;;;;;5.55;4.72;;;3.90;99.90;;;;;;5088207;28;20040;-86
2023/01/27 11:57:21;;;;;;;5.75;4.75;;;3.80;99.90;;;;;;5068083;28;20067;-85
2023/01/27 11:59:54;;;;;;;7.40;5.10;;;3.70;99.90;;;;;;5083597;28;20041;-85
2023/01/27 12:02:39;;;;;;;;;;;3.80;99.90;;;;;;5094106;27;20501;-84
2023/01/27 12:05:36;;;;;;;6.15;4.53;;;3.70;99.90;;;;;;5085271;28;19919;-86
2023/01/27 12:08:03;;;;;;;5.72;4.10;;;3.70;99.90;;;;;;5067082;28;20051;-85
2023/01/27 12:10:31;;;;;;;5.50;3.60;;;3.70;99.90;;;;;;5090842;28;20036;-86
2023/01/27 12:13:12;;;;;;;6.05;3.80;;;3.80;99.90;;;;;;5092658;28;20042;-86
2023/01/27 12:15:57;;;;;;;5.60;3.70;;;3.80;99.90;;;;;;5085981;28;20039;-86
2023/01/27 12:18:23;;;;;;;4.35;3.47;;;3.80;99.90;;;;;;5077012;28;20043;-85
2023/01/27 12:20:58;;;;;;;6.30;2.90;;;3.80;99.90;;;;;;5076834;28;20054;-85
2023/01/27 12:23:28;;;;;;;3.22;2.63;;;3.90;99.90;;;;;;5093763;28;20035;-85
2023/01/27 12:26:09;;;;;;;3.17;2.35;;;4.00;99.90;;;;;;5093708;28;20043;-85
2023/01/27 12:28:46;;;;;;;3.90;3.10;;;3.90;99.90;;;;;;5077135;28;20084;-86
2023/01/27 12:31:16;;;;;;;5.15;3.30;;;3.90;99.90;;;;;;5084902;28;20553;-86
2023/01/27 12:33:59;;;;;;;3.70;3.03;;;3.90;99.90;;;;;;5095386;28;20043;-85
2023/01/27 12:36:25;;;;;;;4.45;3.53;;;3.90;99.90;;;;;;5095014;28;20039;-85
2023/01/27 12:38:53;;;;;;;5.95;3.53;;;3.80;99.90;;;;;;5084374;28;20037;-85
2023/01/27 12:41:26;;;;;;;4.22;3.63;;;3.80;99.90;;;;;;5104579;28;20105;-86
2023/01/27 12:44:08;;;;;;;4.93;3.53;;;3.80;99.90;;;;;;5078377;28;20031;-85
2023/01/27 12:46:33;;;;;;;5.00;3.65;;;3.80;99.90;;;;;;5104602;28;20088;-85
2023/01/27 12:49:08;;;;;;;3.53;2.90;;;3.70;99.90;;;;;;5110010;28;20039;-86
2023/01/27 12:51:39;;;;;;;5.85;4.00;;;3.80;99.90;;;;;;5097630;28;20082;-85
2023/01/27 12:54:20;;;;;;;5.60;3.95;;;3.80;99.90;;;;;;5096290;28;20085;-86
2023/01/27 12:56:46;;;;;;;4.93;3.80;;;3.70;99.90;;;;;;5085176;28;20115;-85
2023/01/27 12:59:15;;;;;;;5.00;4.00;;;3.70;99.90;;;;;;5076873;28;20055;-85
2023/01/27 13:01:43;;;;;;;4.32;3.72;;;3.80;99.90;;;;;;5080060;28;20081;-85
2023/01/27 13:04:20;;;;;;;4.70;3.55;;;3.80;99.90;;;;;;5097344;28;20078;-85
2023/01/27 13:06:53;;;;;;;5.32;3.65;;;3.70;99.90;;;;;;5097543;28;20460;-86
2023/01/27 13:09:56;;;;;;;4.00;3.38;;;3.80;99.90;;;;;;5078754;28;20036;-86
2023/01/27 13:12:27;;;;;;;4.03;3.25;;;3.70;99.90;;;;;;5039758;28;20047;-85
2023/01/27 13:14:55;;;;;;;4.97;3.50;;;3.70;99.90;;;;;;5104333;28;20051;-85
2023/01/27 13:17:48;;;;;;;3.50;2.97;;;3.80;99.90;;;;;;5092706;27;20040;-85
2023/01/27 13:20:39;;;;;;;4.47;3.20;;;3.80;99.90;;;;;;5096655;28;20414;-86
2023/01/27 13:23:13;;;;;;;3.92;2.63;;;3.80;99.90;;;;;;5076866;28;20044;-85
2023/01/27 13:25:54;;;;;;;3.47;2.67;;;3.80;99.90;;;;;;5089817;28;20031;-85
2023/01/27 13:28:31;;;;;;;3.55;2.42;;;3.80;99.90;;;;;;5095613;28;20442;-85
2023/01/27 13:31:05;;;;;;;3.60;2.92;;;3.80;99.90;;;;;;5105186;28;20036;-85
2023/01/27 13:33:43;;;;;;;3.78;2.88;;;3.80;99.90;;;;;;5096605;28;20047;-85
2023/01/27 13:36:36;;;;;;;4.15;2.80;;;3.70;99.90;;;;;;5096769;28;20527;-85
2023/01/27 13:39:39;;;;;;;3.80;2.95;;;3.70;99.90;;;;;;5096457;28;20565;-85
2023/01/27 13:42:27;;;;;;;4.07;3.22;;;3.70;99.90;;;;;;5094695;28;20035;-85
2023/01/27 13:45:04;;;;;;;3.85;3.00;;;3.70;99.90;;;;;;5096299;28;20036;-84